sensor_id;sensor_type;location;lat;lon;timestamp;P1;durP1;ratioP1;P2;durP2;ratioP2
20699;SDS011;10511;51.232;9.420;2023-06-05T00:02:11;0.70;;;0.70;;
20699;SDS011;10511;51.232;9.420;2023-06-05T00:04:38;0.70;;;0.70;;
20699;SDS011;10511;51.232;9.420;2023-06-05T00:07:05;0.70;;;0.70;;
20699;SDS011;10511;51.232;9.420;2023-06-05T00:09:32;0.70;;;0.70;;
20699;SDS011;10511;51.232;9.420;2023-06-05T00:12:01;0.70;;;0.70;;
20699;SDS011;10511;51.232;9.420;2023-06-05T00:14:28;0.70;;;0.70;;
20699;SDS011;10511;51.232;9.420;2023-06-05T00:16:56;0.70;;;0.70;;
20699;SDS011;10511;51.232;9.420;2023-06-05T00:19:22;0.70;;;0.70;;
20699;SDS011;10511;51.232;9.420;2023-06-05T00:21:49;0.80;;;0.80;;
20699;SDS011;10511;51.232;9.420;2023-06-05T00:24:17;0.80;;;0.80;;
20699;SDS011;10511;51.232;9.420;2023-06-05T00:26:44;0.80;;;0.80;;
20699;SDS011;10511;51.232;9.420;2023-06-05T00:29:13;0.80;;;0.80;;
20699;SDS011;10511;51.232;9.420;2023-06-05T00:31:41;0.80;;;0.80;;
20699;SDS011;10511;51.232;9.420;2023-06-05T00:34:08;0.80;;;0.80;;
20699;SDS011;10511;51.232;9.420;2023-06-05T00:36:35;0.70;;;0.70;;
20699;SDS011;10511;51.232;9.420;2023-06-05T00:39:05;0.80;;;0.80;;
20699;SDS011;10511;51.232;9.420;2023-06-05T00:41:32;0.80;;;0.80;;
20699;SDS011;10511;51.232;9.420;2023-06-05T00:43:59;0.80;;;0.80;;
20699;SDS011;10511;51.232;9.420;2023-06-05T00:46:28;0.70;;;0.70;;
20699;SDS011;10511;51.232;9.420;2023-06-05T00:48:55;0.80;;;0.80;;
20699;SDS011;10511;51.232;9.420;2023-06-05T00:51:22;0.90;;;0.90;;
20699;SDS011;10511;51.232;9.420;2023-06-05T00:53:49;0.80;;;0.80;;
20699;SDS011;10511;51.232;9.420;2023-06-05T00:56:16;0.90;;;0.90;;
20699;SDS011;10511;51.232;9.420;2023-06-05T00:58:45;0.80;;;0.80;;
20699;SDS011;10511;51.232;9.420;2023-06-05T01:01:13;0.80;;;0.80;;
20699;SDS011;10511;51.232;9.420;2023-06-05T01:03:43;0.80;;;0.80;;
20699;SDS011;10511;51.232;9.420;2023-06-05T01:06:12;0.80;;;0.80;;
20699;SDS011;10511;51.232;9.420;2023-06-05T01:08:42;0.70;;;0.70;;
20699;SDS011;10511;51.232;9.420;2023-06-05T01:11:13;0.80;;;0.80;;
20699;SDS011;10511;51.232;9.420;2023-06-05T01:13:46;0.80;;;0.80;;
20699;SDS011;10511;51.232;9.420;2023-06-05T01:16:20;0.90;;;0.90;;
20699;SDS011;10511;51.232;9.420;2023-06-05T01:18:57;0.90;;;0.90;;
20699;SDS011;10511;51.232;9.420;2023-06-05T01:21:27;0.90;;;0.90;;
20699;SDS011;10511;51.232;9.420;2023-06-05T01:23:56;0.87;;;0.87;;
20699;SDS011;10511;51.232;9.420;2023-06-05T01:26:24;0.80;;;0.80;;
20699;SDS011;10511;51.232;9.420;2023-06-05T01:28:59;0.83;;;0.83;;
20699;SDS011;10511;51.232;9.420;2023-06-05T01:31:31;0.73;;;0.73;;
20699;SDS011;10511;51.232;9.420;2023-06-05T01:34:02;0.80;;;0.80;;
20699;SDS011;10511;51.232;9.420;2023-06-05T01:36:32;0.90;;;0.90;;
20699;SDS011;10511;51.232;9.420;2023-06-05T01:39:03;0.80;;;0.80;;
20699;SDS011;10511;51.232;9.420;2023-06-05T01:41:31;0.80;;;0.80;;
20699;SDS011;10511;51.232;9.420;2023-06-05T01:43:58;0.90;;;0.90;;
20699;SDS011;10511;51.232;9.420;2023-06-05T01:46:26;0.70;;;0.70;;
20699;SDS011;10511;51.232;9.420;2023-06-05T01:48:53;0.80;;;0.80;;
20699;SDS011;10511;51.232;9.420;2023-06-05T01:51:20;0.80;;;0.80;;
20699;SDS011;10511;51.232;9.420;2023-06-05T01:53:47;0.80;;;0.80;;
20699;SDS011;10511;51.232;9.420;2023-06-05T01:56:16;0.80;;;0.80;;
20699;SDS011;10511;51.232;9.420;2023-06-05T01:58:48;0.80;;;0.80;;
20699;SDS011;10511;51.232;9.420;2023-06-05T02:01:18;0.80;;;0.80;;
20699;SDS011;10511;51.232;9.420;2023-06-05T02:03:48;0.80;;;0.80;;
20699;SDS011;10511;51.232;9.420;2023-06-05T02:06:15;0.90;;;0.90;;
20699;SDS011;10511;51.232;9.420;2023-06-05T02:08:42;0.80;;;0.80;;
20699;SDS011;10511;51.232;9.420;2023-06-05T02:11:09;0.80;;;0.80;;
20699;SDS011;10511;51.232;9.420;2023-06-05T02:13:38;0.90;;;0.90;;
20699;SDS011;10511;51.232;9.420;2023-06-05T02:16:07;0.80;;;0.80;;
20699;SDS011;10511;51.232;9.420;2023-06-05T02:18:36;0.87;;;0.87;;
20699;SDS011;10511;51.232;9.420;2023-06-05T02:21:03;0.80;;;0.80;;
20699;SDS011;10511;51.232;9.420;2023-06-05T02:23:30;0.80;;;0.80;;
20699;SDS011;10511;51.232;9.420;2023-06-05T02:25:57;0.80;;;0.80;;
20699;SDS011;10511;51.232;9.420;2023-06-05T02:28:24;0.90;;;0.90;;
20699;SDS011;10511;51.232;9.420;2023-06-05T02:30:53;0.80;;;0.80;;
20699;SDS011;10511;51.232;9.420;2023-06-05T02:33:20;0.93;;;0.93;;
20699;SDS011;10511;51.232;9.420;2023-06-05T02:35:48;0.90;;;0.90;;
20699;SDS011;10511;51.232;9.420;2023-06-05T02:38:15;0.80;;;0.80;;
20699;SDS011;10511;51.232;9.420;2023-06-05T02:40:41;1.00;;;1.00;;
20699;SDS011;10511;51.232;9.420;2023-06-05T02:43:08;0.80;;;0.80;;
20699;SDS011;10511;51.232;9.420;2023-06-05T02:45:36;0.80;;;0.80;;
20699;SDS011;10511;51.232;9.420;2023-06-05T02:48:05;0.80;;;0.80;;
20699;SDS011;10511;51.232;9.420;2023-06-05T02:50:32;0.80;;;0.80;;
20699;SDS011;10511;51.232;9.420;2023-06-05T02:52:58;0.90;;;0.90;;
20699;SDS011;10511;51.232;9.420;2023-06-05T02:55:26;0.80;;;0.80;;
20699;SDS011;10511;51.232;9.420;2023-06-05T02:57:54;0.80;;;0.80;;
20699;SDS011;10511;51.232;9.420;2023-06-05T03:00:22;0.80;;;0.80;;
20699;SDS011;10511;51.232;9.420;2023-06-05T03:02:50;0.90;;;0.90;;
20699;SDS011;10511;51.232;9.420;2023-06-05T03:05:19;0.83;;;0.83;;
20699;SDS011;10511;51.232;9.420;2023-06-05T03:07:49;0.80;;;0.80;;
20699;SDS011;10511;51.232;9.420;2023-06-05T03:10:19;0.90;;;0.90;;
20699;SDS011;10511;51.232;9.420;2023-06-05T03:12:46;0.80;;;0.80;;
20699;SDS011;10511;51.232;9.420;2023-06-05T03:15:13;0.80;;;0.80;;
20699;SDS011;10511;51.232;9.420;2023-06-05T03:17:40;0.80;;;0.80;;
20699;SDS011;10511;51.232;9.420;2023-06-05T03:20:08;0.90;;;0.90;;
20699;SDS011;10511;51.232;9.420;2023-06-05T03:22:37;0.80;;;0.80;;
20699;SDS011;10511;51.232;9.420;2023-06-05T03:25:04;0.90;;;0.90;;
20699;SDS011;10511;51.232;9.420;2023-06-05T03:27:31;0.90;;;0.90;;
20699;SDS011;10511;51.232;9.420;2023-06-05T03:29:58;0.80;;;0.80;;
20699;SDS011;10511;51.232;9.420;2023-06-05T03:32:25;0.80;;;0.80;;
20699;SDS011;10511;51.232;9.420;2023-06-05T03:34:52;0.83;;;0.83;;
20699;SDS011;10511;51.232;9.420;2023-06-05T03:37:19;0.90;;;0.90;;
20699;SDS011;10511;51.232;9.420;2023-06-05T03:39:47;0.90;;;0.90;;
20699;SDS011;10511;51.232;9.420;2023-06-05T03:42:14;0.90;;;0.90;;
20699;SDS011;10511;51.232;9.420;2023-06-05T03:44:41;0.90;;;0.90;;
20699;SDS011;10511;51.232;9.420;2023-06-05T03:47:07;0.87;;;0.87;;
20699;SDS011;10511;51.232;9.420;2023-06-05T03:49:35;0.80;;;0.80;;
20699;SDS011;10511;51.232;9.420;2023-06-05T03:52:02;0.80;;;0.80;;
20699;SDS011;10511;51.232;9.420;2023-06-05T03:54:30;0.80;;;0.80;;
20699;SDS011;10511;51.232;9.420;2023-06-05T03:57:00;0.87;;;0.87;;
20699;SDS011;10511;51.232;9.420;2023-06-05T03:59:27;0.80;;;0.80;;
20699;SDS011;10511;51.232;9.420;2023-06-05T04:01:55;0.90;;;0.90;;
20699;SDS011;10511;51.232;9.420;2023-06-05T04:04:21;0.80;;;0.80;;
20699;SDS011;10511;51.232;9.420;2023-06-05T04:06:48;0.80;;;0.80;;
20699;SDS011;10511;51.232;9.420;2023-06-05T04:09:15;0.80;;;0.80;;
20699;SDS011;10511;51.232;9.420;2023-06-05T04:11:43;0.80;;;0.80;;
20699;SDS011;10511;51.232;9.420;2023-06-05T04:14:11;0.80;;;0.80;;
20699;SDS011;10511;51.232;9.420;2023-06-05T04:16:39;0.80;;;0.80;;
20699;SDS011;10511;51.232;9.420;2023-06-05T04:19:08;0.80;;;0.80;;
20699;SDS011;10511;51.232;9.420;2023-06-05T04:21:36;0.80;;;0.80;;
20699;SDS011;10511;51.232;9.420;2023-06-05T04:24:03;0.90;;;0.90;;
20699;SDS011;10511;51.232;9.420;2023-06-05T04:26:32;0.80;;;0.80;;
20699;SDS011;10511;51.232;9.420;2023-06-05T04:28:59;0.90;;;0.90;;
20699;SDS011;10511;51.232;9.420;2023-06-05T04:31:29;0.80;;;0.80;;
20699;SDS011;10511;51.232;9.420;2023-06-05T04:33:57;0.83;;;0.83;;
20699;SDS011;10511;51.232;9.420;2023-06-05T04:36:27;0.80;;;0.80;;
20699;SDS011;10511;51.232;9.420;2023-06-05T04:38:54;0.80;;;0.80;;
20699;SDS011;10511;51.232;9.420;2023-06-05T04:41:21;0.80;;;0.80;;
20699;SDS011;10511;51.232;9.420;2023-06-05T04:43:48;0.80;;;0.80;;
20699;SDS011;10511;51.232;9.420;2023-06-05T04:46:15;0.80;;;0.80;;
20699;SDS011;10511;51.232;9.420;2023-06-05T04:48:44;0.80;;;0.80;;
20699;SDS011;10511;51.232;9.420;2023-06-05T04:51:11;0.80;;;0.80;;
20699;SDS011;10511;51.232;9.420;2023-06-05T04:53:38;0.90;;;0.90;;
20699;SDS011;10511;51.232;9.420;2023-06-05T04:56:07;0.80;;;0.80;;
20699;SDS011;10511;51.232;9.420;2023-06-05T04:58:34;0.80;;;0.80;;
20699;SDS011;10511;51.232;9.420;2023-06-05T05:01:02;0.80;;;0.80;;
20699;SDS011;10511;51.232;9.420;2023-06-05T05:03:31;0.80;;;0.80;;
20699;SDS011;10511;51.232;9.420;2023-06-05T05:05:59;0.80;;;0.80;;
20699;SDS011;10511;51.232;9.420;2023-06-05T05:08:26;0.80;;;0.80;;
20699;SDS011;10511;51.232;9.420;2023-06-05T05:10:53;0.80;;;0.80;;
20699;SDS011;10511;51.232;9.420;2023-06-05T05:13:20;0.90;;;0.90;;
20699;SDS011;10511;51.232;9.420;2023-06-05T05:15:47;0.80;;;0.80;;
20699;SDS011;10511;51.232;9.420;2023-06-05T05:18:17;0.83;;;0.83;;
20699;SDS011;10511;51.232;9.420;2023-06-05T05:20:45;0.90;;;0.90;;
20699;SDS011;10511;51.232;9.420;2023-06-05T05:23:13;0.80;;;0.80;;
20699;SDS011;10511;51.232;9.420;2023-06-05T05:25:40;0.90;;;0.90;;
20699;SDS011;10511;51.232;9.420;2023-06-05T05:28:21;0.90;;;0.90;;
20699;SDS011;10511;51.232;9.420;2023-06-05T05:30:52;0.80;;;0.80;;
20699;SDS011;10511;51.232;9.420;2023-06-05T05:33:23;0.90;;;0.90;;
20699;SDS011;10511;51.232;9.420;2023-06-05T05:35:52;0.90;;;0.90;;
20699;SDS011;10511;51.232;9.420;2023-06-05T05:38:21;0.90;;;0.90;;
20699;SDS011;10511;51.232;9.420;2023-06-05T05:40:49;0.83;;;0.83;;
20699;SDS011;10511;51.232;9.420;2023-06-05T05:43:17;0.90;;;0.90;;
20699;SDS011;10511;51.232;9.420;2023-06-05T05:45:44;0.90;;;0.90;;
20699;SDS011;10511;51.232;9.420;2023-06-05T05:48:11;0.80;;;0.80;;
20699;SDS011;10511;51.232;9.420;2023-06-05T05:50:38;0.80;;;0.80;;
20699;SDS011;10511;51.232;9.420;2023-06-05T05:53:05;0.80;;;0.80;;
20699;SDS011;10511;51.232;9.420;2023-06-05T05:55:34;0.80;;;0.80;;
20699;SDS011;10511;51.232;9.420;2023-06-05T05:58:00;0.90;;;0.90;;
20699;SDS011;10511;51.232;9.420;2023-06-05T06:00:27;0.80;;;0.80;;
20699;SDS011;10511;51.232;9.420;2023-06-05T06:02:55;0.90;;;0.90;;
20699;SDS011;10511;51.232;9.420;2023-06-05T06:05:22;0.80;;;0.80;;
20699;SDS011;10511;51.232;9.420;2023-06-05T06:07:49;0.90;;;0.90;;
20699;SDS011;10511;51.232;9.420;2023-06-05T06:10:16;0.80;;;0.80;;
20699;SDS011;10511;51.232;9.420;2023-06-05T06:12:45;0.80;;;0.80;;
20699;SDS011;10511;51.232;9.420;2023-06-05T06:15:12;0.90;;;0.90;;
20699;SDS011;10511;51.232;9.420;2023-06-05T06:17:39;0.80;;;0.80;;
20699;SDS011;10511;51.232;9.420;2023-06-05T06:20:06;0.80;;;0.80;;
20699;SDS011;10511;51.232;9.420;2023-06-05T06:22:37;0.87;;;0.87;;
20699;SDS011;10511;51.232;9.420;2023-06-05T06:25:05;0.90;;;0.90;;
20699;SDS011;10511;51.232;9.420;2023-06-05T06:27:33;0.90;;;0.90;;
20699;SDS011;10511;51.232;9.420;2023-06-05T06:30:01;0.90;;;0.90;;
20699;SDS011;10511;51.232;9.420;2023-06-05T06:32:29;0.80;;;0.80;;
20699;SDS011;10511;51.232;9.420;2023-06-05T06:34:56;0.90;;;0.90;;
20699;SDS011;10511;51.232;9.420;2023-06-05T06:37:23;0.90;;;0.90;;
20699;SDS011;10511;51.232;9.420;2023-06-05T06:39:50;0.80;;;0.80;;
20699;SDS011;10511;51.232;9.420;2023-06-05T06:42:17;0.90;;;0.90;;
20699;SDS011;10511;51.232;9.420;2023-06-05T06:44:44;0.80;;;0.80;;
20699;SDS011;10511;51.232;9.420;2023-06-05T06:47:12;0.80;;;0.80;;
20699;SDS011;10511;51.232;9.420;2023-06-05T06:49:40;0.90;;;0.90;;
20699;SDS011;10511;51.232;9.420;2023-06-05T06:52:07;0.90;;;0.90;;
20699;SDS011;10511;51.232;9.420;2023-06-05T06:54:34;1.00;;;1.00;;
20699;SDS011;10511;51.232;9.420;2023-06-05T06:57:01;0.80;;;0.80;;
20699;SDS011;10511;51.232;9.420;2023-06-05T06:59:28;0.80;;;0.80;;
20699;SDS011;10511;51.232;9.420;2023-06-05T07:02:10;0.70;;;0.70;;
20699;SDS011;10511;51.232;9.420;2023-06-05T07:04:40;0.80;;;0.80;;
20699;SDS011;10511;51.232;9.420;2023-06-05T07:07:08;0.80;;;0.80;;
20699;SDS011;10511;51.232;9.420;2023-06-05T07:09:36;0.80;;;0.80;;
20699;SDS011;10511;51.232;9.420;2023-06-05T07:12:03;0.90;;;0.90;;
20699;SDS011;10511;51.232;9.420;2023-06-05T07:14:31;0.80;;;0.80;;
20699;SDS011;10511;51.232;9.420;2023-06-05T07:16:59;0.80;;;0.80;;
20699;SDS011;10511;51.232;9.420;2023-06-05T07:19:27;0.80;;;0.80;;
20699;SDS011;10511;51.232;9.420;2023-06-05T07:21:55;0.80;;;0.80;;
20699;SDS011;10511;51.232;9.420;2023-06-05T07:24:22;0.80;;;0.80;;
20699;SDS011;10511;51.232;9.420;2023-06-05T07:26:50;0.73;;;0.73;;
20699;SDS011;10511;51.232;9.420;2023-06-05T07:29:18;0.90;;;0.90;;
20699;SDS011;10511;51.232;9.420;2023-06-05T07:31:46;0.80;;;0.80;;
20699;SDS011;10511;51.232;9.420;2023-06-05T07:34:13;0.80;;;0.80;;
20699;SDS011;10511;51.232;9.420;2023-06-05T07:36:44;0.80;;;0.80;;
20699;SDS011;10511;51.232;9.420;2023-06-05T07:39:11;0.80;;;0.80;;
20699;SDS011;10511;51.232;9.420;2023-06-05T07:41:39;0.80;;;0.80;;
20699;SDS011;10511;51.232;9.420;2023-06-05T07:44:07;0.70;;;0.70;;
20699;SDS011;10511;51.232;9.420;2023-06-05T07:46:34;0.73;;;0.73;;
20699;SDS011;10511;51.232;9.420;2023-06-05T07:49:01;0.70;;;0.70;;
20699;SDS011;10511;51.232;9.420;2023-06-05T07:51:29;0.80;;;0.80;;
20699;SDS011;10511;51.232;9.420;2023-06-05T07:53:59;0.80;;;0.80;;
20699;SDS011;10511;51.232;9.420;2023-06-05T07:56:26;0.80;;;0.80;;
20699;SDS011;10511;51.232;9.420;2023-06-05T07:58:53;0.80;;;0.80;;
20699;SDS011;10511;51.232;9.420;2023-06-05T08:01:20;0.80;;;0.80;;
20699;SDS011;10511;51.232;9.420;2023-06-05T08:03:47;0.80;;;0.80;;
20699;SDS011;10511;51.232;9.420;2023-06-05T08:06:14;0.80;;;0.80;;
20699;SDS011;10511;51.232;9.420;2023-06-05T08:08:41;0.80;;;0.80;;
20699;SDS011;10511;51.232;9.420;2023-06-05T08:11:09;0.90;;;0.90;;
20699;SDS011;10511;51.232;9.420;2023-06-05T08:13:36;0.90;;;0.90;;
20699;SDS011;10511;51.232;9.420;2023-06-05T08:16:03;0.90;;;0.90;;
20699;SDS011;10511;51.232;9.420;2023-06-05T08:18:30;0.80;;;0.80;;
20699;SDS011;10511;51.232;9.420;2023-06-05T08:20:57;0.90;;;0.90;;
20699;SDS011;10511;51.232;9.420;2023-06-05T08:23:24;0.90;;;0.90;;
20699;SDS011;10511;51.232;9.420;2023-06-05T08:25:52;1.00;;;1.00;;
20699;SDS011;10511;51.232;9.420;2023-06-05T08:28:21;0.80;;;0.80;;
20699;SDS011;10511;51.232;9.420;2023-06-05T08:30:48;0.90;;;0.90;;
20699;SDS011;10511;51.232;9.420;2023-06-05T08:33:17;0.83;;;0.83;;
20699;SDS011;10511;51.232;9.420;2023-06-05T08:35:44;0.90;;;0.90;;
20699;SDS011;10511;51.232;9.420;2023-06-05T08:38:10;0.90;;;0.90;;
20699;SDS011;10511;51.232;9.420;2023-06-05T08:40:37;0.80;;;0.80;;
20699;SDS011;10511;51.232;9.420;2023-06-05T08:43:05;1.00;;;1.00;;
20699;SDS011;10511;51.232;9.420;2023-06-05T08:45:34;0.80;;;0.80;;
20699;SDS011;10511;51.232;9.420;2023-06-05T08:48:01;0.80;;;0.80;;
20699;SDS011;10511;51.232;9.420;2023-06-05T08:50:29;0.77;;;0.77;;
20699;SDS011;10511;51.232;9.420;2023-06-05T08:52:56;1.07;;;1.07;;
20699;SDS011;10511;51.232;9.420;2023-06-05T08:55:26;1.00;;;1.00;;
20699;SDS011;10511;51.232;9.420;2023-06-05T08:57:56;0.90;;;0.90;;
20699;SDS011;10511;51.232;9.420;2023-06-05T09:00:23;1.00;;;1.00;;
20699;SDS011;10511;51.232;9.420;2023-06-05T09:02:53;1.00;;;1.00;;
20699;SDS011;10511;51.232;9.420;2023-06-05T09:05:21;0.80;;;0.80;;
20699;SDS011;10511;51.232;9.420;2023-06-05T09:07:48;0.93;;;0.93;;
20699;SDS011;10511;51.232;9.420;2023-06-05T09:10:22;0.97;;;0.97;;
20699;SDS011;10511;51.232;9.420;2023-06-05T09:12:52;0.80;;;0.80;;
20699;SDS011;10511;51.232;9.420;2023-06-05T09:15:21;0.73;;;0.73;;
20699;SDS011;10511;51.232;9.420;2023-06-05T09:17:56;0.80;;;0.80;;
20699;SDS011;10511;51.232;9.420;2023-06-05T09:20:30;0.70;;;0.70;;
20699;SDS011;10511;51.232;9.420;2023-06-05T09:23:00;0.90;;;0.90;;
20699;SDS011;10511;51.232;9.420;2023-06-05T09:25:29;1.00;;;1.00;;
20699;SDS011;10511;51.232;9.420;2023-06-05T09:28:13;0.97;;;0.97;;
20699;SDS011;10511;51.232;9.420;2023-06-05T09:30:52;1.00;;;1.00;;
20699;SDS011;10511;51.232;9.420;2023-06-05T09:33:22;1.03;;;1.03;;
20699;SDS011;10511;51.232;9.420;2023-06-05T09:36:03;1.17;;;1.17;;
20699;SDS011;10511;51.232;9.420;2023-06-05T09:38:31;0.93;;;0.93;;
20699;SDS011;10511;51.232;9.420;2023-06-05T09:41:02;1.00;;;1.00;;
20699;SDS011;10511;51.232;9.420;2023-06-05T09:43:30;1.10;;;1.10;;
20699;SDS011;10511;51.232;9.420;2023-06-05T09:45:57;1.10;;;1.10;;
20699;SDS011;10511;51.232;9.420;2023-06-05T09:48:25;0.77;;;0.77;;
20699;SDS011;10511;51.232;9.420;2023-06-05T09:50:52;0.90;;;0.90;;
20699;SDS011;10511;51.232;9.420;2023-06-05T09:53:19;1.10;;;1.10;;
20699;SDS011;10511;51.232;9.420;2023-06-05T09:55:47;0.70;;;0.70;;
20699;SDS011;10511;51.232;9.420;2023-06-05T09:58:15;0.93;;;0.93;;
20699;SDS011;10511;51.232;9.420;2023-06-05T10:00:43;1.00;;;1.00;;
20699;SDS011;10511;51.232;9.420;2023-06-05T10:03:13;0.97;;;0.97;;
20699;SDS011;10511;51.232;9.420;2023-06-05T10:05:44;0.90;;;0.90;;
20699;SDS011;10511;51.232;9.420;2023-06-05T10:08:12;0.93;;;0.93;;
20699;SDS011;10511;51.232;9.420;2023-06-05T10:10:40;0.77;;;0.77;;
20699;SDS011;10511;51.232;9.420;2023-06-05T10:13:08;0.70;;;0.70;;
20699;SDS011;10511;51.232;9.420;2023-06-05T10:15:36;1.10;;;1.10;;
20699;SDS011;10511;51.232;9.420;2023-06-05T10:18:06;0.60;;;0.60;;
20699;SDS011;10511;51.232;9.420;2023-06-05T10:20:35;1.43;;;1.43;;
20699;SDS011;10511;51.232;9.420;2023-06-05T10:23:04;0.70;;;0.70;;
20699;SDS011;10511;51.232;9.420;2023-06-05T10:25:32;0.70;;;0.70;;
20699;SDS011;10511;51.232;9.420;2023-06-05T10:28:05;0.70;;;0.70;;
20699;SDS011;10511;51.232;9.420;2023-06-05T10:30:51;0.60;;;0.60;;
20699;SDS011;10511;51.232;9.420;2023-06-05T10:33:36;0.60;;;0.60;;
20699;SDS011;10511;51.232;9.420;2023-06-05T10:36:18;0.60;;;0.60;;
20699;SDS011;10511;51.232;9.420;2023-06-05T10:38:55;0.60;;;0.60;;
20699;SDS011;10511;51.232;9.420;2023-06-05T10:41:25;0.60;;;0.60;;
20699;SDS011;10511;51.232;9.420;2023-06-05T10:43:52;0.60;;;0.60;;
20699;SDS011;10511;51.232;9.420;2023-06-05T10:46:30;0.60;;;0.60;;
20699;SDS011;10511;51.232;9.420;2023-06-05T10:49:07;0.60;;;0.60;;
20699;SDS011;10511;51.232;9.420;2023-06-05T10:51:37;0.60;;;0.60;;
20699;SDS011;10511;51.232;9.420;2023-06-05T10:54:09;1.17;;;1.17;;
20699;SDS011;10511;51.232;9.420;2023-06-05T10:56:55;0.70;;;0.70;;
20699;SDS011;10511;51.232;9.420;2023-06-05T10:59:25;0.87;;;0.87;;
20699;SDS011;10511;51.232;9.420;2023-06-05T11:05:08;0.67;;;0.67;;
20699;SDS011;10511;51.232;9.420;2023-06-05T11:07:36;0.70;;;0.70;;
20699;SDS011;10511;51.232;9.420;2023-06-05T11:10:09;0.70;;;0.70;;
20699;SDS011;10511;51.232;9.420;2023-06-05T11:12:56;1.43;;;1.43;;
20699;SDS011;10511;51.232;9.420;2023-06-05T11:18:28;2.90;;;2.30;;
20699;SDS011;10511;51.232;9.420;2023-06-05T11:20:59;2.10;;;2.00;;
20699;SDS011;10511;51.232;9.420;2023-06-05T11:23:27;1.90;;;1.80;;
20699;SDS011;10511;51.232;9.420;2023-06-05T11:25:56;2.63;;;2.43;;
20699;SDS011;10511;51.232;9.420;2023-06-05T11:28:44;1.97;;;1.87;;
20699;SDS011;10511;51.232;9.420;2023-06-05T11:31:11;1.77;;;1.67;;
20699;SDS011;10511;51.232;9.420;2023-06-05T11:33:38;1.47;;;1.47;;
20699;SDS011;10511;51.232;9.420;2023-06-05T11:36:05;1.43;;;1.43;;
20699;SDS011;10511;51.232;9.420;2023-06-05T11:38:33;1.70;;;1.70;;
20699;SDS011;10511;51.232;9.420;2023-06-05T11:41:04;1.67;;;1.60;;
20699;SDS011;10511;51.232;9.420;2023-06-05T11:43:33;1.37;;;1.37;;
20699;SDS011;10511;51.232;9.420;2023-06-05T11:46:07;1.20;;;1.20;;
20699;SDS011;10511;51.232;9.420;2023-06-05T11:48:34;0.93;;;0.93;;
20699;SDS011;10511;51.232;9.420;2023-06-05T11:51:01;1.17;;;1.17;;
20699;SDS011;10511;51.232;9.420;2023-06-05T11:53:31;1.10;;;1.10;;
20699;SDS011;10511;51.232;9.420;2023-06-05T11:55:58;1.10;;;1.10;;
20699;SDS011;10511;51.232;9.420;2023-06-05T11:58:37;1.27;;;1.27;;
20699;SDS011;10511;51.232;9.420;2023-06-05T12:01:05;1.37;;;1.37;;
20699;SDS011;10511;51.232;9.420;2023-06-05T12:03:37;1.13;;;1.13;;
20699;SDS011;10511;51.232;9.420;2023-06-05T12:06:04;1.37;;;1.37;;
20699;SDS011;10511;51.232;9.420;2023-06-05T12:08:32;1.30;;;1.30;;
20699;SDS011;10511;51.232;9.420;2023-06-05T12:11:02;1.33;;;1.33;;
20699;SDS011;10511;51.232;9.420;2023-06-05T12:13:47;1.27;;;1.27;;
20699;SDS011;10511;51.232;9.420;2023-06-05T12:16:14;1.03;;;1.03;;
20699;SDS011;10511;51.232;9.420;2023-06-05T12:18:42;1.70;;;1.60;;
20699;SDS011;10511;51.232;9.420;2023-06-05T12:21:20;2.07;;;1.97;;
20699;SDS011;10511;51.232;9.420;2023-06-05T12:23:48;1.93;;;1.80;;
20699;SDS011;10511;51.232;9.420;2023-06-05T12:26:16;2.33;;;2.10;;
20699;SDS011;10511;51.232;9.420;2023-06-05T12:28:44;3.40;;;1.93;;
20699;SDS011;10511;51.232;9.420;2023-06-05T12:34:01;3.97;;;2.10;;
20699;SDS011;10511;51.232;9.420;2023-06-05T12:36:30;4.33;;;2.30;;
20699;SDS011;10511;51.232;9.420;2023-06-05T12:39:01;3.93;;;2.23;;
20699;SDS011;10511;51.232;9.420;2023-06-05T12:41:31;3.17;;;1.90;;
20699;SDS011;10511;51.232;9.420;2023-06-05T12:43:58;2.47;;;1.73;;
20699;SDS011;10511;51.232;9.420;2023-06-05T12:46:26;1.93;;;1.70;;
20699;SDS011;10511;51.232;9.420;2023-06-05T12:48:54;1.83;;;1.67;;
20699;SDS011;10511;51.232;9.420;2023-06-05T12:51:22;2.30;;;2.10;;
20699;SDS011;10511;51.232;9.420;2023-06-05T12:53:49;1.80;;;1.70;;
20699;SDS011;10511;51.232;9.420;2023-06-05T12:56:16;2.10;;;1.97;;
20699;SDS011;10511;51.232;9.420;2023-06-05T12:58:43;1.90;;;1.70;;
20699;SDS011;10511;51.232;9.420;2023-06-05T13:01:11;2.97;;;2.37;;
20699;SDS011;10511;51.232;9.420;2023-06-05T13:03:37;2.13;;;1.83;;
20699;SDS011;10511;51.232;9.420;2023-06-05T13:06:06;1.73;;;1.63;;
20699;SDS011;10511;51.232;9.420;2023-06-05T13:08:34;3.40;;;2.37;;
20699;SDS011;10511;51.232;9.420;2023-06-05T13:11:01;2.87;;;2.37;;
20699;SDS011;10511;51.232;9.420;2023-06-05T13:13:28;3.03;;;2.20;;
20699;SDS011;10511;51.232;9.420;2023-06-05T13:15:55;2.60;;;1.93;;
20699;SDS011;10511;51.232;9.420;2023-06-05T13:18:22;4.17;;;2.30;;
20699;SDS011;10511;51.232;9.420;2023-06-05T13:20:49;2.63;;;1.97;;
20699;SDS011;10511;51.232;9.420;2023-06-05T13:23:17;2.20;;;1.63;;
20699;SDS011;10511;51.232;9.420;2023-06-05T13:25:44;2.93;;;2.17;;
20699;SDS011;10511;51.232;9.420;2023-06-05T13:28:11;2.13;;;1.93;;
20699;SDS011;10511;51.232;9.420;2023-06-05T13:30:38;2.17;;;1.63;;
20699;SDS011;10511;51.232;9.420;2023-06-05T13:33:05;4.03;;;2.23;;
20699;SDS011;10511;51.232;9.420;2023-06-05T13:35:32;3.80;;;2.43;;
20699;SDS011;10511;51.232;9.420;2023-06-05T13:37:58;1.90;;;1.57;;
20699;SDS011;10511;51.232;9.420;2023-06-05T13:40:27;8.37;;;3.07;;
20699;SDS011;10511;51.232;9.420;2023-06-05T13:42:54;7.43;;;2.60;;
20699;SDS011;10511;51.232;9.420;2023-06-05T13:45:21;5.77;;;2.17;;
20699;SDS011;10511;51.232;9.420;2023-06-05T13:47:47;5.57;;;2.37;;
20699;SDS011;10511;51.232;9.420;2023-06-05T13:50:14;7.23;;;2.67;;
20699;SDS011;10511;51.232;9.420;2023-06-05T13:52:41;7.27;;;2.70;;
20699;SDS011;10511;51.232;9.420;2023-06-05T13:55:08;5.47;;;2.33;;
20699;SDS011;10511;51.232;9.420;2023-06-05T13:57:36;5.67;;;2.57;;
20699;SDS011;10511;51.232;9.420;2023-06-05T14:00:04;4.53;;;2.27;;
20699;SDS011;10511;51.232;9.420;2023-06-05T14:02:32;4.37;;;2.13;;
20699;SDS011;10511;51.232;9.420;2023-06-05T14:04:59;5.97;;;2.50;;
20699;SDS011;10511;51.232;9.420;2023-06-05T14:07:26;4.77;;;2.33;;
20699;SDS011;10511;51.232;9.420;2023-06-05T14:09:53;2.27;;;1.70;;
20699;SDS011;10511;51.232;9.420;2023-06-05T14:12:20;4.67;;;2.37;;
20699;SDS011;10511;51.232;9.420;2023-06-05T14:14:48;4.57;;;2.50;;
20699;SDS011;10511;51.232;9.420;2023-06-05T14:17:15;2.87;;;1.83;;
20699;SDS011;10511;51.232;9.420;2023-06-05T14:19:42;4.33;;;2.47;;
20699;SDS011;10511;51.232;9.420;2023-06-05T14:22:09;4.33;;;2.23;;
20699;SDS011;10511;51.232;9.420;2023-06-05T14:24:36;3.50;;;2.10;;
20699;SDS011;10511;51.232;9.420;2023-06-05T14:27:03;3.00;;;2.03;;
20699;SDS011;10511;51.232;9.420;2023-06-05T14:29:30;5.80;;;3.00;;
20699;SDS011;10511;51.232;9.420;2023-06-05T14:31:58;3.77;;;2.23;;
20699;SDS011;10511;51.232;9.420;2023-06-05T14:34:25;4.13;;;2.43;;
20699;SDS011;10511;51.232;9.420;2023-06-05T14:36:52;3.90;;;2.33;;
20699;SDS011;10511;51.232;9.420;2023-06-05T14:39:19;3.63;;;2.27;;
20699;SDS011;10511;51.232;9.420;2023-06-05T14:41:46;3.27;;;2.30;;
20699;SDS011;10511;51.232;9.420;2023-06-05T14:44:13;3.20;;;2.30;;
20699;SDS011;10511;51.232;9.420;2023-06-05T14:46:40;2.57;;;1.90;;
20699;SDS011;10511;51.232;9.420;2023-06-05T14:49:08;2.67;;;1.93;;
20699;SDS011;10511;51.232;9.420;2023-06-05T14:51:35;2.57;;;1.93;;
20699;SDS011;10511;51.232;9.420;2023-06-05T14:54:02;3.37;;;2.20;;
20699;SDS011;10511;51.232;9.420;2023-06-05T14:56:29;3.80;;;2.20;;
20699;SDS011;10511;51.232;9.420;2023-06-05T14:58:56;4.00;;;2.67;;
20699;SDS011;10511;51.232;9.420;2023-06-05T15:01:23;2.97;;;2.10;;
20699;SDS011;10511;51.232;9.420;2023-06-05T15:03:49;2.63;;;1.90;;
20699;SDS011;10511;51.232;9.420;2023-06-05T15:06:18;3.30;;;2.27;;